createdAt,value
2019-01-27T00:02:42.463Z,98438.49
2019-01-27T00:07:48.340Z,98430.73
2019-01-27T00:13:26.405Z,98435.95
2019-01-27T00:18:57.271Z,98425.70
2019-01-27T00:24:01.492Z,98423.54
2019-01-27T00:29:06.293Z,98412.78
2019-01-27T00:34:10.546Z,98412.78
2019-01-27T00:39:16.470Z,98409.91
2019-01-27T00:44:20.524Z,98389.29
2019-01-27T00:49:24.765Z,98382.06
2019-01-27T00:54:28.930Z,98373.15
2019-01-27T00:59:32.981Z,98359.55
2019-01-27T01:04:37.149Z,98330.22
2019-01-27T01:09:41.555Z,98346.64
2019-01-27T01:14:45.783Z,98319.25
2019-01-27T01:19:49.975Z,98333.03
2019-01-27T01:24:54.715Z,98333.03
2019-01-27T01:29:58.822Z,98313.16
2019-01-27T01:35:03.294Z,98313.16
2019-01-27T01:40:09.823Z,98303.56
2019-01-27T01:45:17.226Z,98278.19
2019-01-27T01:50:21.647Z,98271.63
2019-01-27T01:55:26.027Z,98253.00
2019-01-27T02:00:30.915Z,98239.17
2019-01-27T02:05:35.232Z,98235.64
2019-01-27T02:10:39.458Z,98235.64
2019-01-27T02:16:08.314Z,98212.66
2019-01-27T02:21:12.510Z,98188.02
2019-01-27T02:26:16.689Z,98188.02
2019-01-27T02:31:20.877Z,98171.92
2019-01-27T02:36:24.897Z,98171.92
2019-01-27T02:41:29.094Z,98177.18
2019-01-27T02:46:33.115Z,98138.85
2019-01-27T02:51:37.116Z,98117.80
2019-01-27T02:56:41.305Z,98098.09
2019-01-27T03:01:45.402Z,98094.94
2019-01-27T03:06:57.217Z,98092.11
2019-01-27T03:12:01.392Z,98081.48
2019-01-27T03:17:07.290Z,98081.48
2019-01-27T03:22:11.454Z,98062.66
2019-01-27T03:27:15.567Z,98051.91
2019-01-27T03:32:19.658Z,98040.77
2019-01-27T03:37:23.755Z,98040.77
2019-01-27T03:42:27.840Z,98038.12
2019-01-27T03:47:31.866Z,98028.70
2019-01-27T03:52:35.983Z,98027.36
2019-01-27T03:57:40.064Z,98019.45
2019-01-27T04:02:44.182Z,98007.86
2019-01-27T04:07:48.369Z,98000.63
2019-01-27T04:12:52.490Z,98000.63
2019-01-27T04:17:56.651Z,97991.05
2019-01-27T04:23:00.870Z,97984.33
2019-01-27T04:28:05.859Z,97984.33
2019-01-27T04:33:09.900Z,97964.48
2019-01-27T04:38:13.915Z,97967.66
2019-01-27T04:43:17.967Z,97955.92
2019-01-27T04:48:22.075Z,97955.92
2019-01-27T04:53:26.205Z,97924.62
2019-01-27T04:58:30.239Z,97911.55
2019-01-27T05:03:57.386Z,97905.80
2019-01-27T05:09:01.423Z,97886.13
2019-01-27T05:14:05.710Z,97860.06
2019-01-27T05:19:09.832Z,97860.06
2019-01-27T05:24:13.891Z,97854.03
2019-01-27T05:29:17.974Z,97843.11
2019-01-27T05:34:22.013Z,97834.52
2019-01-27T05:39:26.018Z,97853.02
2019-01-27T05:44:30.184Z,97844.95
2019-01-27T05:49:34.199Z,97833.02
2019-01-27T05:54:38.214Z,97821.42
2019-01-27T05:59:42.406Z,97821.42
2019-01-27T06:04:46.518Z,97802.10
2019-01-27T06:09:50.612Z,97794.03
2019-01-27T06:14:54.654Z,97777.89
2019-01-27T06:19:58.847Z,97772.84
2019-01-27T06:25:03.398Z,97774.70
2019-01-27T06:30:11.198Z,97763.95
2019-01-27T06:35:15.290Z,97759.07
2019-01-27T06:40:19.388Z,97739.23
2019-01-27T06:45:57.362Z,97746.47
2019-01-27T06:51:01.374Z,97740.42
2019-01-27T06:56:06.174Z,97715.86
2019-01-27T07:01:18.888Z,97722.91
2019-01-27T07:06:33.727Z,97721.58
2019-01-27T07:11:56.756Z,97707.93
2019-01-27T07:17:09.189Z,97699.19
2019-01-27T07:22:41.251Z,97703.57
2019-01-27T07:28:03.233Z,97702.20
2019-01-27T07:33:26.397Z,97700.00
2019-01-27T07:38:36.920Z,97700.00
2019-01-27T07:43:50.865Z,97703.88
2019-01-27T07:49:14.436Z,97687.38
2019-01-27T07:54:46.317Z,97691.25
2019-01-27T08:00:15.720Z,97690.72
2019-01-27T08:05:25.538Z,97690.39
2019-01-27T08:10:35.466Z,97686.58
2019-01-27T08:15:54.491Z,97683.80
2019-01-27T08:21:20.624Z,97675.84
2019-01-27T08:26:42.147Z,97675.30
2019-01-27T08:32:01.834Z,97675.30
2019-01-27T08:37:30.938Z,97654.17
2019-01-27T08:42:52.979Z,97662.27
2019-01-27T08:47:57.263Z,97642.94
2019-01-27T08:53:01.558Z,97643.28
2019-01-27T08:58:06.035Z,97626.46
2019-01-27T09:03:22.746Z,97615.20
2019-01-27T09:08:51.683Z,97615.20
2019-01-27T09:14:06.998Z,97627.61
2019-01-27T09:19:18.947Z,97627.61
2019-01-27T09:24:42.046Z,97619.03
2019-01-27T09:30:08.995Z,97612.14
2019-01-27T09:35:38.023Z,97612.14
2019-01-27T09:41:01.206Z,97619.73
2019-01-27T09:46:21.577Z,97619.73
2019-01-27T09:51:40.164Z,97636.38
2019-01-27T09:57:03.177Z,97624.59
2019-01-27T10:02:35.501Z,97612.52
2019-01-27T10:07:47.320Z,97617.23
2019-01-27T10:13:04.814Z,97617.23
2019-01-27T10:18:25.245Z,97587.31
2019-01-27T10:23:48.411Z,97584.45
2019-01-27T10:29:07.893Z,97601.09
2019-01-27T10:34:20.413Z,97570.00
2019-01-27T10:39:46.213Z,97566.78
2019-01-27T10:45:21.429Z,97566.78
2019-01-27T10:51:00.092Z,97550.14
2019-01-27T10:56:36.141Z,97549.98
2019-01-27T11:01:58.234Z,97538.56
2019-01-27T11:07:27.605Z,97535.91
2019-01-27T11:13:03.071Z,97536.25
2019-01-27T11:18:35.512Z,97534.72
2019-01-27T11:24:07.678Z,97514.73
2019-01-27T11:29:19.233Z,97504.49
2019-01-27T11:34:46.652Z,97480.98
2019-01-27T11:40:03.245Z,97488.85
2019-01-27T11:45:36.835Z,97483.08
2019-01-27T11:50:45.463Z,97483.08
2019-01-27T11:55:50.770Z,97466.44
2019-01-27T12:00:59.766Z,97465.78
2019-01-27T12:06:05.663Z,97455.06
2019-01-27T12:11:10.213Z,97463.61
2019-01-27T12:16:14.365Z,97458.92
2019-01-27T12:21:18.870Z,97446.71
2019-01-27T12:26:23.903Z,97446.71
2019-01-27T12:31:28.724Z,97447.33
2019-01-27T12:36:33.864Z,97447.55
2019-01-27T12:41:38.947Z,97433.95
2019-01-27T12:46:44.651Z,97429.42
2019-01-27T12:56:59.172Z,97405.59
2019-01-27T13:02:04.074Z,97398.47
2019-01-27T13:07:15.234Z,97379.84
2019-01-27T13:12:23.626Z,97381.31
2019-01-27T13:17:28.510Z,97369.55
2019-01-27T13:22:33.225Z,97379.66
2019-01-27T13:27:38.071Z,97371.45
2019-01-27T13:32:43.073Z,97371.45
2019-01-27T13:37:48.867Z,97358.24
2019-01-27T13:42:54.148Z,97346.52
2019-01-27T13:47:59.412Z,97346.52
2019-01-27T13:53:04.405Z,97310.61
2019-01-27T13:58:09.283Z,97312.58
2019-01-27T14:03:14.404Z,97313.22
2019-01-27T14:08:19.440Z,97324.98
2019-01-27T14:13:24.275Z,97316.59
2019-01-27T14:18:29.188Z,97322.11
2019-01-27T14:23:33.772Z,97312.89
2019-01-27T14:28:38.788Z,97305.02
2019-01-27T14:33:43.453Z,97297.14
2019-01-27T14:38:47.970Z,97314.09
2019-01-27T14:43:52.836Z,97297.01
2019-01-27T14:48:57.640Z,97306.88
2019-01-27T14:54:02.749Z,97292.28
2019-01-27T14:59:08.121Z,97306.22
2019-01-27T15:04:12.648Z,97302.67
2019-01-27T15:09:17.638Z,97297.16
2019-01-27T15:14:22.510Z,97294.47
2019-01-27T15:19:27.661Z,97295.13
2019-01-27T15:24:32.886Z,97289.09
2019-01-27T15:29:37.832Z,97292.13
2019-01-27T15:34:42.947Z,97300.85
2019-01-27T15:39:48.212Z,97314.92
2019-01-27T15:44:53.822Z,97314.92
2019-01-27T15:49:58.578Z,97312.69
2019-01-27T15:55:03.801Z,97316.09
2019-01-27T16:00:12.733Z,97313.58
2019-01-27T16:05:19.767Z,97300.98
2019-01-27T16:10:25.657Z,97314.19
2019-01-27T16:15:31.960Z,97318.21
2019-01-27T16:20:36.717Z,97307.19
2019-01-27T16:25:42.013Z,97312.66
2019-01-27T16:31:02.876Z,97305.47
2019-01-27T16:36:07.614Z,97284.81
2019-01-27T16:41:13.041Z,97283.33
2019-01-27T16:46:18.338Z,97294.73
2019-01-27T16:51:23.405Z,97294.73
2019-01-27T16:56:28.290Z,97313.17
2019-01-27T17:01:33.250Z,97315.84
2019-01-27T17:06:38.337Z,97311.31
2019-01-27T17:11:43.540Z,97300.67
2019-01-27T17:16:50.145Z,97301.93
2019-01-27T17:21:54.943Z,97301.93
2019-01-27T17:27:00.580Z,97268.74
2019-01-27T17:32:05.761Z,97286.08
2019-01-27T17:37:10.517Z,97288.03
2019-01-27T17:42:15.489Z,97278.13
2019-01-27T17:52:44.502Z,97282.17
2019-01-27T17:58:13.624Z,97291.09
2019-01-27T18:03:40.064Z,97291.09
2019-01-27T18:09:21.719Z,97289.61
2019-01-27T18:14:31.066Z,97292.91
2019-01-27T18:19:38.228Z,97297.59
2019-01-27T18:24:43.190Z,97293.68
2019-01-27T18:29:48.375Z,97298.55
2019-01-27T18:34:53.771Z,97300.84
2019-01-27T18:40:06.807Z,97309.72
2019-01-27T18:45:14.328Z,97316.61
2019-01-27T18:50:20.761Z,97309.27
2019-01-27T18:55:49.923Z,97309.95
2019-01-27T19:01:13.217Z,97322.00
2019-01-27T19:06:28.398Z,97311.78
2019-01-27T19:11:39.388Z,97311.63
2019-01-27T19:17:09.049Z,97307.31
2019-01-27T19:22:35.466Z,97321.38
2019-01-27T19:28:14.011Z,97323.12
2019-01-27T19:33:30.653Z,97326.45
2019-01-27T19:38:54.745Z,97331.95
2019-01-27T19:44:14.211Z,97331.95
2019-01-27T19:49:43.678Z,97328.95
2019-01-27T19:55:05.749Z,97328.95
2019-01-27T20:00:36.370Z,97334.45
2019-01-27T20:05:58.252Z,97333.23
2019-01-27T20:11:14.608Z,97334.20
2019-01-27T20:16:47.086Z,97347.29
2019-01-27T20:22:10.671Z,97358.00
2019-01-27T20:27:52.214Z,97358.00
2019-01-27T20:33:14.515Z,97340.98
2019-01-27T20:38:40.939Z,97355.95
2019-01-27T20:44:04.315Z,97350.26
2019-01-27T20:49:27.833Z,97344.88
2019-01-27T20:54:55.903Z,97345.78
2019-01-27T21:00:17.990Z,97344.27
2019-01-27T21:05:30.429Z,97341.33
2019-01-27T21:10:52.970Z,97345.20
2019-01-27T21:16:05.242Z,97345.20
2019-01-27T21:21:10.953Z,97343.72
2019-01-27T21:26:16.660Z,97343.75
2019-01-27T21:31:22.523Z,97343.10
2019-01-27T21:36:27.962Z,97343.10
2019-01-27T21:41:36.915Z,97337.41
2019-01-27T21:46:42.588Z,97347.36
2019-01-27T21:51:47.722Z,97346.84
2019-01-27T21:56:57.142Z,97338.77
2019-01-27T22:02:02.009Z,97339.28
2019-01-27T22:07:10.166Z,97334.46
2019-01-27T22:12:15.115Z,97338.82
2019-01-27T22:17:19.985Z,97337.81
2019-01-27T22:22:24.713Z,97333.27
2019-01-27T22:27:29.378Z,97336.47
2019-01-27T22:32:34.125Z,97337.47
2019-01-27T22:37:38.525Z,97345.22
2019-01-27T22:42:42.949Z,97328.26
2019-01-27T22:47:47.384Z,97351.61
2019-01-27T22:52:54.000Z,97353.47
2019-01-27T22:57:58.433Z,97355.97
2019-01-27T23:03:03.037Z,97359.03
2019-01-27T23:08:07.596Z,97364.54
2019-01-27T23:13:12.414Z,97362.39
2019-01-27T23:18:16.952Z,97367.94
2019-01-27T23:23:21.539Z,97371.48
2019-01-27T23:28:26.132Z,97378.70
2019-01-27T23:33:30.694Z,97380.06
2019-01-27T23:38:35.196Z,97382.88
2019-01-27T23:43:39.726Z,97382.88
2019-01-27T23:48:44.130Z,97394.14
2019-01-27T23:53:49.457Z,97401.37
2019-01-27T23:58:57.241Z,97402.92
